Carthage, North Carolina
Current Conditions -  °F | °C
As of 3:35 PM on Saturday 25 Oct 2014 (Local Time) from KSOP Reporting Station
Clear Clear  
Wind Chill: 22°   Ceiling: Unl
Heat Index: 22°   Visibility: 10mi
Dew Point:   Wind: 5mph
Humidity: 31%   Direction: 320°NW
Pressure: 29.94"   Gusts: NA
Location:  35.35°N, 79.42°W
Report Text: KSOP 251935Z AUTO 32004KT 10SM CLR 22/04 A2994 RMK AO1
Loading
Personal Weather Stations






























Interactive Weather Map
Tropical Storm Tracking
New forecast layout! Learn more

10-Day Weather Forecast

Advertisements
Track Severe Weather on mobile